^^

..:: Storico WU ::..




Lo storico viene creato da WUnderground con i dati che la stazione Meteomincio invia al loro server. L' aggiornamento viene fatto ogni 5 minuti circa, tuttavia possono esserci intervalli pił ampi a causa di errori, interruzioni di servizio o problemi nell' invio tramite FTP.


Storico stazione MeteoMincio
Giorno Sommario per Dicembre 06, 2022 Unità:  Entrambi    Inglese   Metrico
Giorno Settimana Mese Anno
  Max: Min: Media:
Temperatura: 42.8 °F /  6.0 °C 37.4 °F /  3.0 °C 39.9 °F /  4.4 °C
Dew Point: 42.8 °F /  6.0 °C 35.6 °F /  2.0 °C 38.7 °F /  3.7 °C
Umidità: 97% 95% 96%
Velocità vento: 9.3mph /  15km/h - 4.3mph /  6.9km/h
Raffica: 13mph /  21km/h - -
Direzione- - SW
Pressione: 30.1 in /  1017.6 hPa 30 in /  1015.3 hPa -
Precipitazioni: 0.01 in /  0.20 mm    
 
 
Tabulato Dati per Dicembre 06, 2022
Ora Temperatura Dew Point Pressione Direzione Velocità vento Raffica Umidità Intensità pioggia (oraria) Info solare Situazione
00:04 42.8 °F /  6.0 °C 42.8 °F /  6.0 °C 30in /  1017.2hPa SSW 4.3mph /  7km/h 6.8mph /  11km/h 96% 0in /  0.00mm 0.00 W/m2 unknown
00:09 42.8 °F /  6.0 °C 42.8 °F /  6.0 °C 30in /  1017.2hPa SW 5mph /  8km/h 6.8mph /  11km/h 96% 0in /  0.00mm 0.00 W/m2 unknown
00:14 42.8 °F /  6.0 °C 42.8 °F /  6.0 °C 30in /  1017.2hPa WSW 5.6mph /  9km/h 8.1mph /  13km/h 96% 0in /  0.00mm 0.00 W/m2 unknown
00:19 42.8 °F /  6.0 °C 42.8 °F /  6.0 °C 30in /  1017.2hPa WSW 5mph /  8km/h 8.1mph /  13km/h 96% 0in /  0.00mm 0.00 W/m2 unknown
00:24 42.8 °F /  6.0 °C 42.8 °F /  6.0 °C 30in /  1017.3hPa WSW 4.3mph /  7km/h 6.2mph /  10km/h 96% 0in /  0.00mm 0.00 W/m2 unknown
00:29 42.8 °F /  6.0 °C 42.8 °F /  6.0 °C 30in /  1017.3hPa West 5mph /  8km/h 6.2mph /  10km/h 96% 0in /  0.00mm 0.00 W/m2 unknown
00:34 42.8 °F /  6.0 °C 41 °F /  5.0 °C 30in /  1017.3hPa WSW 3.7mph /  6km/h 5mph /  8km/h 96% 0in /  0.00mm 0.00 W/m2 unknown
00:39 42.8 °F /  6.0 °C 41 °F /  5.0 °C 30in /  1017.2hPa West 3.7mph /  6km/h 5mph /  8km/h 96% 0in /  0.00mm 0.00 W/m2 unknown
00:44 42.8 °F /  6.0 °C 41 °F /  5.0 °C 30in /  1017.2hPa West 3.7mph /  6km/h 5mph /  8km/h 96% 0in /  0.00mm 0.00 W/m2 unknown
00:49 42.8 °F /  6.0 °C 41 °F /  5.0 °C 30in /  1017.2hPa West 3.7mph /  6km/h 5mph /  8km/h 96% 0in /  0.00mm 0.00 W/m2 unknown
00:54 42.8 °F /  6.0 °C 41 °F /  5.0 °C 30in /  1017.2hPa WNW 3.1mph /  5km/h 5mph /  8km/h 96% 0in /  0.00mm 0.00 W/m2 unknown
00:59 42.8 °F /  6.0 °C 41 °F /  5.0 °C 30in /  1017.2hPa WNW 5mph /  8km/h 6.2mph /  10km/h 96% 0in /  0.00mm 0.00 W/m2 unknown
01:04 42.8 °F /  6.0 °C 41 °F /  5.0 °C 30in /  1017.3hPa WNW 4.3mph /  7km/h 6.2mph /  10km/h 96% 0in /  0.00mm 0.00 W/m2 unknown
01:09 42.8 °F /  6.0 °C 41 °F /  5.0 °C 30in /  1017.3hPa WNW 4.3mph /  7km/h 5mph /  8km/h 96% 0in /  0.00mm 0.00 W/m2 unknown
01:14 42.8 °F /  6.0 °C 41 °F /  5.0 °C 30in /  1017.3hPa WNW 3.7mph /  6km/h 5mph /  8km/h 96% 0in /  0.00mm 0.00 W/m2 unknown
01:19 42.8 °F /  6.0 °C 41 °F /  5.0 °C 30in /  1017.3hPa WNW 4.3mph /  7km/h 6.2mph /  10km/h 96% 0in /  0.00mm 0.00 W/m2 unknown
01:24 42.8 °F /  6.0 °C 41 °F /  5.0 °C 30in /  1017.3hPa WNW 4.3mph /  7km/h 5.6mph /  9km/h 96% 0in /  0.00mm 0.00 W/m2 unknown
01:29 42.8 °F /  6.0 °C 41 °F /  5.0 °C 30in /  1017.2hPa WNW 3.7mph /  6km/h 6.2mph /  10km/h 96% 0in /  0.00mm 0.00 W/m2 unknown
01:34 42.8 °F /  6.0 °C 41 °F /  5.0 °C 30in /  1017.2hPa WNW 5mph /  8km/h 6.2mph /  10km/h 96% 0in /  0.00mm 0.00 W/m2 unknown
01:39 42.8 °F /  6.0 °C 41 °F /  5.0 °C 30in /  1017.2hPa WNW 6.8mph /  11km/h 11.2mph /  18km/h 96% 0in /  0.00mm 0.00 W/m2 unknown
01:44 42.8 °F /  6.0 °C 41 °F /  5.0 °C 30in /  1017.2hPa NW 7.5mph /  12km/h 11.8mph /  19km/h 96% 0in /  0.00mm 0.00 W/m2 unknown
01:49 42.8 °F /  6.0 °C 41 °F /  5.0 °C 30in /  1017.1hPa WNW 7.5mph /  12km/h 11.8mph /  19km/h 96% 0in /  0.00mm 0.00 W/m2 unknown
01:54 42.8 °F /  6.0 °C 41 °F /  5.0 °C 30in /  1017.1hPa WNW 7.5mph /  12km/h 9.9mph /  16km/h 96% 0in /  0.00mm 0.00 W/m2 unknown
01:59 42.8 °F /  6.0 °C 41 °F /  5.0 °C 30in /  1017.1hPa WNW 7.5mph /  12km/h 10.6mph /  17km/h 96% 0in /  0.00mm 0.00 W/m2 unknown
02:04 42.8 °F /  6.0 °C 41 °F /  5.0 °C 30in /  1017.1hPa West 7.5mph /  12km/h 10.6mph /  17km/h 96% 0in /  0.00mm 0.00 W/m2 unknown
02:09 42.8 °F /  6.0 °C 41 °F /  5.0 °C 30in /  1017.1hPa WNW 8.7mph /  14km/h 11.8mph /  19km/h 96% 0in /  0.00mm 0.00 W/m2 unknown
02:14 42.8 °F /  6.0 °C 41 °F /  5.0 °C 30in /  1017.0hPa WNW 8.7mph /  14km/h 11.8mph /  19km/h 96% 0in /  0.00mm 0.00 W/m2 unknown
02:19 42.8 °F /  6.0 °C 41 °F /  5.0 °C 30in /  1017.0hPa West 8.1mph /  13km/h 11.8mph /  19km/h 96% 0in /  0.00mm 0.00 W/m2 unknown
02:24 42.8 °F /  6.0 °C 41 °F /  5.0 °C 30in /  1016.9hPa West 6.8mph /  11km/h 9.3mph /  15km/h 96% 0in /  0.00mm 0.00 W/m2 unknown
02:29 42.8 °F /  6.0 °C 41 °F /  5.0 °C 30in /  1016.9hPa West 8.1mph /  13km/h 11.8mph /  19km/h 96% 0in /  0.00mm 0.00 W/m2 unknown
02:34 42.8 °F /  6.0 °C 41 °F /  5.0 °C 30in /  1016.9hPa West 6.8mph /  11km/h 11.8mph /  19km/h 96% 0in /  0.00mm 0.00 W/m2 unknown
02:39 42.8 °F /  6.0 °C 41 °F /  5.0 °C 30in /  1016.9hPa West 8.1mph /  13km/h 10.6mph /  17km/h 96% 0in /  0.00mm 0.00 W/m2 unknown
02:44 42.8 °F /  6.0 °C 41 °F /  5.0 °C 30in /  1016.9hPa West 6.2mph /  10km/h 9.9mph /  16km/h 96% 0in /  0.00mm 0.00 W/m2 unknown
02:49 42.8 °F /  6.0 °C 41 °F /  5.0 °C 30in /  1016.9hPa West 6.8mph /  11km/h 8.1mph /  13km/h 96% 0in /  0.00mm 0.00 W/m2 unknown
02:54 42.8 °F /  6.0 °C 41 °F /  5.0 °C 30in /  1016.9hPa West 5.6mph /  9km/h 8.1mph /  13km/h 96% 0in /  0.00mm 0.00 W/m2 unknown
02:59 42.8 °F /  6.0 °C 41 °F /  5.0 °C 30in /  1016.8hPa WNW 5.6mph /  9km/h 8.1mph /  13km/h 96% 0in /  0.00mm 0.00 W/m2 unknown
03:04 42.8 °F /  6.0 °C 41 °F /  5.0 °C 30in /  1016.8hPa WNW 6.2mph /  10km/h 9.3mph /  15km/h 96% 0in /  0.00mm 0.00 W/m2 unknown
03:09 42.8 °F /  6.0 °C 41 °F /  5.0 °C 30in /  1016.8hPa WNW 6.2mph /  10km/h 8.7mph /  14km/h 96% 0in /  0.00mm 0.00 W/m2 unknown
03:14 42.8 °F /  6.0 °C 41 °F /  5.0 °C 30in /  1016.8hPa West 5mph /  8km/h 8.1mph /  13km/h 96% 0in /  0.00mm 0.00 W/m2 unknown
03:19 42.8 °F /  6.0 °C 41 °F /  5.0 °C 30in /  1016.8hPa WNW 5mph /  8km/h 6.8mph /  11km/h 96% 0in /  0.00mm 0.00 W/m2 unknown
03:24 42.8 °F /  6.0 °C 41 °F /  5.0 °C 30in /  1016.7hPa WNW 5mph /  8km/h 6.8mph /  11km/h 96% 0in /  0.00mm 0.00 W/m2 unknown
03:29 42.8 °F /  6.0 °C 41 °F /  5.0 °C 30in /  1016.7hPa WNW 5mph /  8km/h 6.8mph /  11km/h 96% 0in /  0.00mm 0.00 W/m2 unknown
03:34 42.8 °F /  6.0 °C 41 °F /  5.0 °C 30in /  1016.7hPa WNW 6.2mph /  10km/h 8.1mph /  13km/h 96% 0in /  0.00mm 0.00 W/m2 unknown
03:39 42.8 °F /  6.0 °C 41 °F /  5.0 °C 30in /  1016.7hPa WNW 6.2mph /  10km/h 8.1mph /  13km/h 96% 0in /  0.00mm 0.00 W/m2 unknown
03:44 42.8 °F /  6.0 °C 41 °F /  5.0 °C 30in /  1016.6hPa NW 5mph /  8km/h 8.1mph /  13km/h 96% 0in /  0.00mm 0.00 W/m2 unknown
03:49 41 °F /  5.0 °C 41 °F /  5.0 °C 30in /  1016.6hPa WNW 5mph /  8km/h 8.1mph /  13km/h 96% 0in /  0.00mm 0.00 W/m2 unknown
03:54 41 °F /  5.0 °C 41 °F /  5.0 °C 30in /  1016.5hPa WNW 5.6mph /  9km/h 8.1mph /  13km/h 96% 0in /  0.00mm 0.00 W/m2 unknown
03:59 41 °F /  5.0 °C 41 °F /  5.0 °C 30in /  1016.5hPa WNW 6.2mph /  10km/h 8.1mph /  13km/h 96% 0in /  0.00mm 0.00 W/m2 unknown
04:04 41 °F /  5.0 °C 41 °F /  5.0 °C 30in /  1016.4hPa WNW 5.6mph /  9km/h 6.8mph /  11km/h 96% 0in /  0.00mm 0.00 W/m2 unknown
04:09 41 °F /  5.0 °C 41 °F /  5.0 °C 30in /  1016.5hPa WNW 6.2mph /  10km/h 6.8mph /  11km/h 96% 0in /  0.00mm 0.00 W/m2 unknown
04:14 41 °F /  5.0 °C 41 °F /  5.0 °C 30in /  1016.5hPa WNW 5.6mph /  9km/h 6.8mph /  11km/h 96% 0in /  0.00mm 0.00 W/m2 unknown
04:19 41 °F /  5.0 °C 41 °F /  5.0 °C 30in /  1016.5hPa WNW 5mph /  8km/h 6.8mph /  11km/h 96% 0in /  0.00mm 0.00 W/m2 unknown
04:24 41 °F /  5.0 °C 41 °F /  5.0 °C 30in /  1016.5hPa West 3.7mph /  6km/h 5mph /  8km/h 96% 0in /  0.00mm 0.00 W/m2 unknown
04:29 41 °F /  5.0 °C 39.2 °F /  4.0 °C 30in /  1016.5hPa WNW 3.1mph /  5km/h 5mph /  8km/h 96% 0in /  0.00mm 0.00 W/m2 unknown
04:34 41 °F /  5.0 °C 39.2 °F /  4.0 °C 30in /  1016.5hPa West 3.1mph /  5km/h 3.7mph /  6km/h 96% 0in /  0.00mm 0.00 W/m2 unknown
04:39 41 °F /  5.0 °C 39.2 °F /  4.0 °C 30in /  1016.5hPa WSW 5mph /  8km/h 8.1mph /  13km/h 96% 0in /  0.00mm 0.00 W/m2 unknown
04:44 41 °F /  5.0 °C 39.2 °F /  4.0 °C 30in /  1016.5hPa WSW 5.6mph /  9km/h 8.1mph /  13km/h 96% 0in /  0.00mm 0.00 W/m2 unknown
04:49 39.2 °F /  4.0 °C 39.2 °F /  4.0 °C 30in /  1016.5hPa WSW 5mph /  8km/h 8.1mph /  13km/h 96% 0in /  0.00mm 0.00 W/m2 unknown
04:54 39.2 °F /  4.0 °C 39.2 °F /  4.0 °C 30in /  1016.4hPa WSW 4.3mph /  7km/h 6.2mph /  10km/h 96% 0in /  0.00mm 0.00 W/m2 unknown
04:59 39.2 °F /  4.0 °C 39.2 °F /  4.0 °C 30in /  1016.4hPa WSW 5.6mph /  9km/h 8.1mph /  13km/h 96% 0in /  0.00mm 0.00 W/m2 unknown
05:04 39.2 °F /  4.0 °C 37.4 °F /  3.0 °C 30in /  1016.4hPa West 6.2mph /  10km/h 8.1mph /  13km/h 96% 0in /  0.00mm 0.00 W/m2 unknown
05:09 39.2 °F /  4.0 °C 37.4 °F /  3.0 °C 30in /  1016.4hPa West 5mph /  8km/h 6.8mph /  11km/h 96% 0in /  0.00mm 0.00 W/m2 unknown
05:14 39.2 °F /  4.0 °C 37.4 °F /  3.0 °C 30in /  1016.4hPa West 5.6mph /  9km/h 6.8mph /  11km/h 96% 0in /  0.00mm 0.00 W/m2 unknown
05:19 39.2 °F /  4.0 °C 37.4 °F /  3.0 °C 30in /  1016.4hPa West 5mph /  8km/h 6.8mph /  11km/h 96% 0in /  0.00mm 0.00 W/m2 unknown
05:24 39.2 °F /  4.0 °C 37.4 °F /  3.0 °C 30in /  1016.4hPa West 7.5mph /  12km/h 10.6mph /  17km/h 96% 0.01in /  0.20mm 0.00 W/m2 unknown
05:29 39.2 °F /  4.0 °C 37.4 °F /  3.0 °C 30in /  1016.3hPa West 6.2mph /  10km/h 9.9mph /  16km/h 96% 0.01in /  0.20mm 0.00 W/m2 unknown
05:34 39.2 °F /  4.0 °C 37.4 °F /  3.0 °C 30in /  1016.3hPa West 8.1mph /  13km/h 10.6mph /  17km/h 96% 0.01in /  0.20mm 0.00 W/m2 unknown
05:39 39.2 °F /  4.0 °C 37.4 °F /  3.0 °C 30in /  1016.4hPa West 8.1mph /  13km/h 10.6mph /  17km/h 96% 0.01in /  0.20mm 0.00 W/m2 unknown
05:44 39.2 °F /  4.0 °C 37.4 °F /  3.0 °C 30in /  1016.4hPa West 6.8mph /  11km/h 8.1mph /  13km/h 96% 0.01in /  0.20mm 0.00 W/m2 unknown
05:49 39.2 °F /  4.0 °C 37.4 °F /  3.0 °C 30in /  1016.3hPa WSW 5.6mph /  9km/h 8.1mph /  13km/h 96% 0.01in /  0.20mm 0.00 W/m2 unknown
05:54 39.2 °F /  4.0 °C 37.4 °F /  3.0 °C 30in /  1016.3hPa WSW 5mph /  8km/h 8.1mph /  13km/h 96% 0.01in /  0.20mm 0.00 W/m2 unknown
05:59 39.2 °F /  4.0 °C 37.4 °F /  3.0 °C 30in /  1016.3hPa West 5.6mph /  9km/h 8.1mph /  13km/h 96% 0.01in /  0.20mm 0.00 W/m2 unknown
06:04 39.2 °F /  4.0 °C 37.4 °F /  3.0 °C 30in /  1016.3hPa West 5.6mph /  9km/h 8.1mph /  13km/h 96% 0.01in /  0.20mm 0.00 W/m2 unknown
06:09 37.4 °F /  3.0 °C 37.4 °F /  3.0 °C 30in /  1016.4hPa West 5.6mph /  9km/h 8.1mph /  13km/h 96% 0.01in /  0.20mm 0.00 W/m2 unknown
06:14 37.4 °F /  3.0 °C 37.4 °F /  3.0 °C 30in /  1016.4hPa West 8.1mph /  13km/h 11.2mph /  18km/h 96% 0.01in /  0.20mm 0.00 W/m2 unknown
06:19 37.4 °F /  3.0 °C 37.4 °F /  3.0 °C 30in /  1016.4hPa West 8.7mph /  14km/h 11.8mph /  19km/h 96% 0.01in /  0.20mm 0.00 W/m2 unknown
06:24 37.4 °F /  3.0 °C 37.4 °F /  3.0 °C 30in /  1016.4hPa West 6.8mph /  11km/h 11.8mph /  19km/h 96% 0.01in /  0.20mm 0.00 W/m2 unknown
06:29 37.4 °F /  3.0 °C 37.4 °F /  3.0 °C 30in /  1016.4hPa West 6.8mph /  11km/h 8.1mph /  13km/h 96% 0.01in /  0.20mm 0.00 W/m2 unknown
06:34 37.4 °F /  3.0 °C 37.4 °F /  3.0 °C 30in /  1016.4hPa West 5.6mph /  9km/h 8.1mph /  13km/h 96% 0in /  0.00mm 0.00 W/m2 unknown
06:39 37.4 °F /  3.0 °C 37.4 °F /  3.0 °C 30in /  1016.3hPa West 7.5mph /  12km/h 10.6mph /  17km/h 96% 0in /  0.00mm 0.00 W/m2 unknown
06:44 37.4 °F /  3.0 °C 37.4 °F /  3.0 °C 30in /  1016.3hPa West 6.8mph /  11km/h 9.9mph /  16km/h 96% 0in /  0.00mm 0.00 W/m2 unknown
06:49 37.4 °F /  3.0 °C 37.4 °F /  3.0 °C 30in /  1016.3hPa WSW 7.5mph /  12km/h 9.3mph /  15km/h 96% 0in /  0.00mm 0.00 W/m2 unknown
06:54 37.4 °F /  3.0 °C 37.4 °F /  3.0 °C 30in /  1016.3hPa WSW 6.8mph /  11km/h 9.9mph /  16km/h 96% 0in /  0.00mm 0.00 W/m2 unknown
06:59 37.4 °F /  3.0 °C 37.4 °F /  3.0 °C 30in /  1016.4hPa West 8.1mph /  13km/h 10.6mph /  17km/h 96% 0in /  0.00mm 0.00 W/m2 unknown
07:04 37.4 °F /  3.0 °C 37.4 °F /  3.0 °C 30in /  1016.4hPa West 8.7mph /  14km/h 11.8mph /  19km/h 96% 0in /  0.00mm 0.00 W/m2 unknown
07:09 37.4 °F /  3.0 °C 37.4 °F /  3.0 °C 30in /  1016.4hPa West 7.5mph /  12km/h 11.8mph /  19km/h 96% 0in /  0.00mm 0.00 W/m2 unknown
07:14 37.4 °F /  3.0 °C 37.4 °F /  3.0 °C 30in /  1016.4hPa WSW 6.2mph /  10km/h 9.3mph /  15km/h 96% 0in /  0.00mm 0.00 W/m2 unknown
07:19 37.4 °F /  3.0 °C 37.4 °F /  3.0 °C 30in /  1016.4hPa West 8.7mph /  14km/h 11.8mph /  19km/h 96% 0in /  0.00mm 0.00 W/m2 unknown
07:24 37.4 °F /  3.0 °C 37.4 °F /  3.0 °C 30in /  1016.4hPa WSW 8.1mph /  13km/h 11.8mph /  19km/h 96% 0in /  0.00mm 0.00 W/m2 unknown
07:29 37.4 °F /  3.0 °C 37.4 °F /  3.0 °C 30in /  1016.4hPa WSW 8.7mph /  14km/h 11.8mph /  19km/h 96% 0in /  0.00mm 0.00 W/m2 unknown
07:34 37.4 °F /  3.0 °C 37.4 °F /  3.0 °C 30in /  1016.4hPa WSW 8.7mph /  14km/h 11.8mph /  19km/h 96% 0in /  0.00mm 0.00 W/m2 unknown
07:39 37.4 °F /  3.0 °C 37.4 °F /  3.0 °C 30in /  1016.4hPa WSW 8.7mph /  14km/h 11.8mph /  19km/h 96% 0in /  0.00mm 0.00 W/m2 unknown
07:44 37.4 °F /  3.0 °C 35.6 °F /  2.0 °C 30in /  1016.5hPa WSW 8.7mph /  14km/h 13mph /  21km/h 96% 0in /  0.00mm 0.00 W/m2 unknown
07:49 37.4 °F /  3.0 °C 35.6 °F /  2.0 °C 30in /  1016.6hPa WSW 9.3mph /  15km/h 13mph /  21km/h 96% 0in /  0.00mm 0.00 W/m2 unknown
07:54 37.4 °F /  3.0 °C 35.6 °F /  2.0 °C 30in /  1016.6hPa WSW 8.7mph /  14km/h 11.8mph /  19km/h 96% 0in /  0.00mm 5.00 W/m2 unknown
07:59 37.4 °F /  3.0 °C 35.6 °F /  2.0 °C 30in /  1016.7hPa WSW 7.5mph /  12km/h 11.8mph /  19km/h 96% 0in /  0.00mm 9.00 W/m2 unknown
08:04 37.4 °F /  3.0 °C 35.6 °F /  2.0 °C 30in /  1016.8hPa WSW 6.8mph /  11km/h 9.9mph /  16km/h 96% 0in /  0.00mm 11.00 W/m2 unknown
08:09 37.4 °F /  3.0 °C 35.6 °F /  2.0 °C 30in /  1016.8hPa West 7.5mph /  12km/h 11.8mph /  19km/h 96% 0in /  0.00mm 16.00 W/m2 unknown
08:14 37.4 °F /  3.0 °C 35.6 °F /  2.0 °C 30in /  1016.8hPa WSW 7.5mph /  12km/h 11.8mph /  19km/h 96% 0in /  0.00mm 18.00 W/m2 unknown
08:19 37.4 °F /  3.0 °C 35.6 °F /  2.0 °C 30in /  1016.8hPa WSW 8.1mph /  13km/h 11.8mph /  19km/h 96% 0in /  0.00mm 21.00 W/m2 unknown
08:24 37.4 °F /  3.0 °C 35.6 °F /  2.0 °C 30in /  1016.8hPa WSW 7.5mph /  12km/h 11.8mph /  19km/h 96% 0in /  0.00mm 25.00 W/m2 unknown
08:29 37.4 °F /  3.0 °C 35.6 °F /  2.0 °C 30in /  1016.8hPa WSW 7.5mph /  12km/h 10.6mph /  17km/h 96% 0in /  0.00mm 28.00 W/m2 unknown
08:34 37.4 °F /  3.0 °C 37.4 °F /  3.0 °C 30in /  1016.8hPa West 7.5mph /  12km/h 9.9mph /  16km/h 97% 0in /  0.00mm 35.00 W/m2 unknown
08:39 37.4 °F /  3.0 °C 37.4 °F /  3.0 °C 30in /  1016.8hPa WSW 5.6mph /  9km/h 8.7mph /  14km/h 97% 0in /  0.00mm 44.00 W/m2 unknown
08:44 37.4 °F /  3.0 °C 37.4 °F /  3.0 °C 30in /  1016.9hPa WSW 5.6mph /  9km/h 8.1mph /  13km/h 97% 0in /  0.00mm 47.00 W/m2 unknown
08:49 37.4 °F /  3.0 °C 37.4 °F /  3.0 °C 30in /  1017.0hPa WSW 6.2mph /  10km/h 10.6mph /  17km/h 97% 0in /  0.00mm 28.00 W/m2 unknown
08:54 37.4 °F /  3.0 °C 37.4 °F /  3.0 °C 30in /  1017.0hPa West 6.8mph /  11km/h 10.6mph /  17km/h 97% 0in /  0.00mm 39.00 W/m2 unknown
08:59 37.4 °F /  3.0 °C 37.4 °F /  3.0 °C 30in /  1017.0hPa West 6.8mph /  11km/h 9.9mph /  16km/h 97% 0in /  0.00mm 42.00 W/m2 unknown
09:04 37.4 °F /  3.0 °C 37.4 °F /  3.0 °C 30in /  1017.0hPa WSW 5mph /  8km/h 8.7mph /  14km/h 97% 0in /  0.00mm 54.00 W/m2 unknown
09:09 37.4 °F /  3.0 °C 37.4 °F /  3.0 °C 30in /  1017.1hPa WSW 5.6mph /  9km/h 8.1mph /  13km/h 97% 0in /  0.00mm 77.00 W/m2 unknown
09:14 37.4 °F /  3.0 °C 37.4 °F /  3.0 °C 30in /  1017.1hPa West 5.6mph /  9km/h 8.1mph /  13km/h 97% 0in /  0.00mm 74.00 W/m2 unknown
09:19 37.4 °F /  3.0 °C 37.4 °F /  3.0 °C 30in /  1017.1hPa West 6.2mph /  10km/h 8.1mph /  13km/h 96% 0in /  0.00mm 86.00 W/m2 unknown
09:24 37.4 °F /  3.0 °C 37.4 °F /  3.0 °C 30in /  1017.1hPa WNW 5mph /  8km/h 6.8mph /  11km/h 97% 0in /  0.00mm 81.00 W/m2 unknown
09:29 37.4 °F /  3.0 °C 37.4 °F /  3.0 °C 30in /  1017.1hPa West 5.6mph /  9km/h 8.1mph /  13km/h 97% 0in /  0.00mm 84.00 W/m2 unknown
09:34 37.4 °F /  3.0 °C 37.4 °F /  3.0 °C 30in /  1017.2hPa WNW 5mph /  8km/h 8.1mph /  13km/h 97% 0in /  0.00mm 84.00 W/m2 unknown
09:39 37.4 °F /  3.0 °C 37.4 °F /  3.0 °C 30in /  1017.2hPa WNW 5mph /  8km/h 6.8mph /  11km/h 96% 0in /  0.00mm 88.00 W/m2 unknown
09:44 37.4 °F /  3.0 °C 37.4 °F /  3.0 °C 30in /  1017.2hPa WNW 5.6mph /  9km/h 6.8mph /  11km/h 96% 0in /  0.00mm 88.00 W/m2 unknown
09:49 37.4 °F /  3.0 °C 37.4 °F /  3.0 °C 30in /  1017.3hPa WNW 4.3mph /  7km/h 6.8mph /  11km/h 97% 0in /  0.00mm 86.00 W/m2 unknown
09:54 37.4 °F /  3.0 °C 37.4 °F /  3.0 °C 30in /  1017.3hPa WNW 5mph /  8km/h 6.8mph /  11km/h 97% 0in /  0.00mm 90.00 W/m2 unknown
09:59 37.4 °F /  3.0 °C 37.4 °F /  3.0 °C 30in /  1017.3hPa West 5.6mph /  9km/h 6.8mph /  11km/h 97% 0in /  0.00mm 93.00 W/m2 unknown
10:04 37.4 °F /  3.0 °C 37.4 °F /  3.0 °C 30in /  1017.4hPa West 6.2mph /  10km/h 6.8mph /  11km/h 97% 0in /  0.00mm 88.00 W/m2 unknown
10:09 39.2 °F /  4.0 °C 37.4 °F /  3.0 °C 30in /  1017.4hPa WNW 6.2mph /  10km/h 8.1mph /  13km/h 97% 0in /  0.00mm 84.00 W/m2 unknown
10:14 39.2 °F /  4.0 °C 37.4 °F /  3.0 °C 30.1in /  1017.5hPa West 6.2mph /  10km/h 8.1mph /  13km/h 97% 0in /  0.00mm 109.00 W/m2 unknown
10:19 39.2 °F /  4.0 °C 37.4 °F /  3.0 °C 30.1in /  1017.5hPa WNW 6.2mph /  10km/h 8.1mph /  13km/h 97% 0in /  0.00mm 125.00 W/m2 unknown
10:24 39.2 °F /  4.0 °C 37.4 °F /  3.0 °C 30.1in /  1017.5hPa WNW 5.6mph /  9km/h 8.1mph /  13km/h 97% 0in /  0.00mm 76.00 W/m2 unknown
10:29 39.2 °F /  4.0 °C 37.4 °F /  3.0 °C 30.1in /  1017.5hPa West 6.2mph /  10km/h 6.8mph /  11km/h 97% 0in /  0.00mm 79.00 W/m2 unknown
10:34 39.2 °F /  4.0 °C 37.4 °F /  3.0 °C 30.1in /  1017.6hPa WNW 5mph /  8km/h 6.8mph /  11km/h 97% 0in /  0.00mm 65.00 W/m2 unknown
10:39 39.2 °F /  4.0 °C 37.4 °F /  3.0 °C 30.1in /  1017.6hPa NW 5mph /  8km/h 6.8mph /  11km/h 97% 0in /  0.00mm 74.00 W/m2 unknown
10:44 39.2 °F /  4.0 °C 37.4 °F /  3.0 °C 30.1in /  1017.6hPa NW 5mph /  8km/h 6.8mph /  11km/h 97% 0in /  0.00mm 72.00 W/m2 unknown
10:49 39.2 °F /  4.0 °C 39.2 °F /  4.0 °C 30.1in /  1017.5hPa NW 5mph /  8km/h 6.8mph /  11km/h 97% 0in /  0.00mm 81.00 W/m2 unknown
10:54 39.2 °F /  4.0 °C 39.2 °F /  4.0 °C 30.1in /  1017.5hPa WNW 5mph /  8km/h 6.8mph /  11km/h 97% 0in /  0.00mm 104.00 W/m2 unknown
10:59 39.2 °F /  4.0 °C 39.2 °F /  4.0 °C 30.1in /  1017.5hPa West 5.6mph /  9km/h 6.8mph /  11km/h 97% 0in /  0.00mm 98.00 W/m2 unknown
11:04 39.2 °F /  4.0 °C 39.2 °F /  4.0 °C 30.1in /  1017.5hPa WNW 6.2mph /  10km/h 6.8mph /  11km/h 97% 0in /  0.00mm 95.00 W/m2 unknown
11:09 39.2 °F /  4.0 °C 39.2 °F /  4.0 °C 30.1in /  1017.5hPa West 5.6mph /  9km/h 6.8mph /  11km/h 97% 0in /  0.00mm 116.00 W/m2 unknown
11:14 39.2 °F /  4.0 °C 39.2 °F /  4.0 °C 30in /  1017.4hPa WNW 5.6mph /  9km/h 8.1mph /  13km/h 97% 0in /  0.00mm 135.00 W/m2 unknown
11:19 39.2 °F /  4.0 °C 37.4 °F /  3.0 °C 30in /  1017.3hPa WNW 6.2mph /  10km/h 8.1mph /  13km/h 97% 0in /  0.00mm 123.00 W/m2 unknown
11:24 39.2 °F /  4.0 °C 39.2 °F /  4.0 °C 30in /  1017.3hPa NW 5mph /  8km/h 8.1mph /  13km/h 97% 0in /  0.00mm 116.00 W/m2 unknown
11:29 39.2 °F /  4.0 °C 39.2 °F /  4.0 °C 30in /  1017.2hPa WNW 5.6mph /  9km/h 6.8mph /  11km/h 97% 0in /  0.00mm 151.00 W/m2 unknown
11:34 39.2 °F /  4.0 °C 39.2 °F /  4.0 °C 30in /  1017.2hPa West 5.6mph /  9km/h 8.1mph /  13km/h 97% 0in /  0.00mm 151.00 W/m2 unknown
11:39 39.2 °F /  4.0 °C 39.2 °F /  4.0 °C 30in /  1017.1hPa NW 5mph /  8km/h 8.1mph /  13km/h 97% 0in /  0.00mm 105.00 W/m2 unknown
11:44 39.2 °F /  4.0 °C 39.2 °F /  4.0 °C 30in /  1017.1hPa NNW 5mph /  8km/h 6.8mph /  11km/h 97% 0in /  0.00mm 88.00 W/m2 unknown
11:49 39.2 °F /  4.0 °C 39.2 °F /  4.0 °C 30in /  1017.1hPa NNW 5mph /  8km/h 6.8mph /  11km/h 97% 0in /  0.00mm 95.00 W/m2 unknown
11:54 39.2 °F /  4.0 °C 39.2 °F /  4.0 °C 30in /  1017.2hPa NNW 3.7mph /  6km/h 6.8mph /  11km/h 97% 0in /  0.00mm 97.00 W/m2 unknown
11:59 39.2 °F /  4.0 °C 39.2 °F /  4.0 °C 30in /  1017.1hPa NW 3.7mph /  6km/h 5mph /  8km/h 97% 0in /  0.00mm 98.00 W/m2 unknown
12:04 39.2 °F /  4.0 °C 39.2 °F /  4.0 °C 30in /  1017.1hPa West 3.1mph /  5km/h 5mph /  8km/h 97% 0in /  0.00mm 86.00 W/m2 unknown
12:09 39.2 °F /  4.0 °C 39.2 °F /  4.0 °C 30in /  1017.1hPa NW 4.3mph /  7km/h 6.2mph /  10km/h 97% 0in /  0.00mm 104.00 W/m2 unknown
12:14 39.2 °F /  4.0 °C 39.2 °F /  4.0 °C 30in /  1017.1hPa NNW 3.1mph /  5km/h 6.2mph /  10km/h 97% 0in /  0.00mm 91.00 W/m2 unknown
12:19 39.2 °F /  4.0 °C 39.2 °F /  4.0 °C 30in /  1017.1hPa NW 3.7mph /  6km/h 5mph /  8km/h 97% 0in /  0.00mm 98.00 W/m2 unknown
12:24 39.2 °F /  4.0 °C 39.2 °F /  4.0 °C 30in /  1017.0hPa WNW 5mph /  8km/h 8.7mph /  14km/h 97% 0in /  0.00mm 114.00 W/m2 unknown
12:29 39.2 °F /  4.0 °C 39.2 °F /  4.0 °C 30in /  1016.9hPa NW 5mph /  8km/h 9.3mph /  15km/h 97% 0in /  0.00mm 139.00 W/m2 unknown
12:34 41 °F /  5.0 °C 39.2 °F /  4.0 °C 30in /  1016.9hPa NNW 5.6mph /  9km/h 8.7mph /  14km/h 97% 0in /  0.00mm 130.00 W/m2 unknown
12:39 41 °F /  5.0 °C 39.2 °F /  4.0 °C 30in /  1016.8hPa NNW 5mph /  8km/h 6.8mph /  11km/h 97% 0in /  0.00mm 120.00 W/m2 unknown
12:44 41 °F /  5.0 °C 39.2 °F /  4.0 °C 30in /  1016.8hPa NW 3.7mph /  6km/h 6.8mph /  11km/h 97% 0in /  0.00mm 135.00 W/m2 unknown
12:49 41 °F /  5.0 °C 39.2 °F /  4.0 °C 30in /  1016.8hPa NNW 3.1mph /  5km/h 6.8mph /  11km/h 97% 0in /  0.00mm 135.00 W/m2 unknown
12:54 41 °F /  5.0 °C 39.2 °F /  4.0 °C 30in /  1016.7hPa NNW 1.9mph /  3km/h 3.7mph /  6km/h 97% 0in /  0.00mm 98.00 W/m2 unknown
12:59 41 °F /  5.0 °C 41 °F /  5.0 °C 30in /  1016.6hPa North 3.7mph /  6km/h 3.7mph /  6km/h 97% 0in /  0.00mm 123.00 W/m2 unknown
13:04 41 °F /  5.0 °C 41 °F /  5.0 °C 30in /  1016.5hPa North 3.7mph /  6km/h 5mph /  8km/h 97% 0in /  0.00mm 139.00 W/m2 unknown
13:09 41 °F /  5.0 °C 41 °F /  5.0 °C 30in /  1016.5hPa North 4.3mph /  7km/h 5mph /  8km/h 97% 0in /  0.00mm 109.00 W/m2 unknown
13:14 41 °F /  5.0 °C 41 °F /  5.0 °C 30in /  1016.5hPa North 3.7mph /  6km/h 5mph /  8km/h 97% 0in /  0.00mm 107.00 W/m2 unknown
13:19 41 °F /  5.0 °C 41 °F /  5.0 °C 30in /  1016.5hPa NNE 4.3mph /  7km/h 6.8mph /  11km/h 97% 0in /  0.00mm 137.00 W/m2 unknown
13:24 41 °F /  5.0 °C 41 °F /  5.0 °C 30in /  1016.4hPa NNW 5mph /  8km/h 6.8mph /  11km/h 97% 0in /  0.00mm 176.00 W/m2 unknown
13:29 41 °F /  5.0 °C 39.2 °F /  4.0 °C 30in /  1016.4hPa North 5mph /  8km/h 6.2mph /  10km/h 96% 0in /  0.00mm 148.00 W/m2 unknown
13:34 41 °F /  5.0 °C 39.2 °F /  4.0 °C 30in /  1016.3hPa NNE 4.3mph /  7km/h 6.2mph /  10km/h 96% 0in /  0.00mm 127.00 W/m2 unknown
13:39 41 °F /  5.0 °C 39.2 °F /  4.0 °C 30in /  1016.2hPa NE 4.3mph /  7km/h 5mph /  8km/h 96% 0in /  0.00mm 118.00 W/m2 unknown
13:44 41 °F /  5.0 °C 39.2 °F /  4.0 °C 30in /  1016.1hPa NNE 3.1mph /  5km/h 3.7mph /  6km/h 96% 0in /  0.00mm 114.00 W/m2 unknown
13:49 41 °F /  5.0 °C 39.2 °F /  4.0 °C 30in /  1016.1hPa NNE 4.3mph /  7km/h 6.2mph /  10km/h 96% 0in /  0.00mm 91.00 W/m2 unknown
13:54 41 °F /  5.0 °C 39.2 °F /  4.0 °C 30in /  1016.0hPa NE 5mph /  8km/h 6.8mph /  11km/h 96% 0in /  0.00mm 88.00 W/m2 unknown
13:59 41 °F /  5.0 °C 39.2 °F /  4.0 °C 30in /  1016.0hPa NE 4.3mph /  7km/h 6.2mph /  10km/h 96% 0in /  0.00mm 93.00 W/m2 unknown
14:04 41 °F /  5.0 °C 39.2 °F /  4.0 °C 30in /  1016.0hPa ENE 5mph /  8km/h 6.2mph /  10km/h 96% 0in /  0.00mm 97.00 W/m2 unknown
14:09 41 °F /  5.0 °C 39.2 °F /  4.0 °C 30in /  1016.0hPa NE 3.7mph /  6km/h 6.2mph /  10km/h 96% 0in /  0.00mm 86.00 W/m2 unknown
14:14 41 °F /  5.0 °C 39.2 °F /  4.0 °C 30in /  1016.0hPa North 3.7mph /  6km/h 6.2mph /  10km/h 96% 0in /  0.00mm 93.00 W/m2 unknown
14:19 41 °F /  5.0 °C 39.2 °F /  4.0 °C 30in /  1016.0hPa NE 3.1mph /  5km/h 3.7mph /  6km/h 96% 0in /  0.00mm 90.00 W/m2 unknown
14:24 41 °F /  5.0 °C 39.2 °F /  4.0 °C 30in /  1015.9hPa East 2.5mph /  4km/h 5mph /  8km/h 96% 0in /  0.00mm 88.00 W/m2 unknown
14:29 41 °F /  5.0 °C 39.2 °F /  4.0 °C 30in /  1016.0hPa East 1.9mph /  3km/h 5mph /  8km/h 96% 0in /  0.00mm 81.00 W/m2 unknown
14:34 41 °F /  5.0 °C 39.2 °F /  4.0 °C 30in /  1016.0hPa ENE 3.1mph /  5km/h 5mph /  8km/h 96% 0in /  0.00mm 69.00 W/m2 unknown
14:39 41 °F /  5.0 °C 39.2 °F /  4.0 °C 30in /  1016.0hPa NE 3.1mph /  5km/h 5mph /  8km/h 96% 0in /  0.00mm 70.00 W/m2 unknown
14:44 41 °F /  5.0 °C 39.2 °F /  4.0 °C 30in /  1015.9hPa NNE 1.2mph /  2km/h 3.7mph /  6km/h 96% 0in /  0.00mm 76.00 W/m2 unknown
14:49 41 °F /  5.0 °C 39.2 °F /  4.0 °C 30in /  1015.8hPa North 2.5mph /  4km/h 3.7mph /  6km/h 96% 0in /  0.00mm 72.00 W/m2 unknown
14:54 41 °F /  5.0 °C 39.2 °F /  4.0 °C 30in /  1015.9hPa North 2.5mph /  4km/h 3.7mph /  6km/h 96% 0in /  0.00mm 67.00 W/m2 unknown
14:59 41 °F /  5.0 °C 39.2 °F /  4.0 °C 30in /  1015.9hPa ENE 3.1mph /  5km/h 5mph /  8km/h 96% 0in /  0.00mm 53.00 W/m2 unknown
15:04 41 °F /  5.0 °C 39.2 °F /  4.0 °C 30in /  1015.8hPa East 3.7mph /  6km/h 5mph /  8km/h 96% 0in /  0.00mm 58.00 W/m2 unknown
15:09 41 °F /  5.0 °C 39.2 °F /  4.0 °C 30in /  1015.8hPa East 3.7mph /  6km/h 5mph /  8km/h 96% 0in /  0.00mm 58.00 W/m2 unknown
15:14 41 °F /  5.0 °C 39.2 °F /  4.0 °C 30in /  1015.8hPa ESE 3.1mph /  5km/h 5mph /  8km/h 96% 0in /  0.00mm 63.00 W/m2 unknown
15:19 41 °F /  5.0 °C 39.2 °F /  4.0 °C 30in /  1015.8hPa ESE 3.1mph /  5km/h 5mph /  8km/h 96% 0in /  0.00mm 76.00 W/m2 unknown
15:24 41 °F /  5.0 °C 39.2 °F /  4.0 °C 30in /  1015.8hPa ESE 2.5mph /  4km/h 3.7mph /  6km/h 96% 0in /  0.00mm 79.00 W/m2 unknown
15:29 41 °F /  5.0 °C 39.2 °F /  4.0 °C 30in /  1015.8hPa NE 1.9mph /  3km/h 3.1mph /  5km/h 96% 0in /  0.00mm 81.00 W/m2 unknown
15:34 41 °F /  5.0 °C 39.2 °F /  4.0 °C 30in /  1015.8hPa NNE 3.1mph /  5km/h 3.7mph /  6km/h 96% 0in /  0.00mm 74.00 W/m2 unknown
15:39 41 °F /  5.0 °C 39.2 °F /  4.0 °C 30in /  1015.7hPa NE 2.5mph /  4km/h 3.7mph /  6km/h 96% 0in /  0.00mm 47.00 W/m2 unknown
15:44 41 °F /  5.0 °C 39.2 °F /  4.0 °C 30in /  1015.7hPa ENE 2.5mph /  4km/h 3.7mph /  6km/h 96% 0in /  0.00mm 30.00 W/m2 unknown
15:49 41 °F /  5.0 °C 39.2 °F /  4.0 °C 30in /  1015.7hPa Calm     96% 0in /  0.00mm 25.00 W/m2 unknown
15:54 41 °F /  5.0 °C 39.2 °F /  4.0 °C 30in /  1015.7hPa NE 1.9mph /  3km/h 3.1mph /  5km/h 96% 0in /  0.00mm 25.00 W/m2 unknown
15:59 41 °F /  5.0 °C 39.2 °F /  4.0 °C 30in /  1015.7hPa NE 1.9mph /  3km/h 3.7mph /  6km/h 96% 0in /  0.00mm 21.00 W/m2 unknown
16:04 41 °F /  5.0 °C 39.2 °F /  4.0 °C 30in /  1015.7hPa NE 1.9mph /  3km/h 3.7mph /  6km/h 96% 0in /  0.00mm 12.00 W/m2 unknown
16:09 41 °F /  5.0 °C 39.2 °F /  4.0 °C 30in /  1015.6hPa North 1.9mph /  3km/h 3.7mph /  6km/h 96% 0in /  0.00mm 12.00 W/m2 unknown
16:14 41 °F /  5.0 °C 39.2 °F /  4.0 °C 30in /  1015.6hPa North 1.2mph /  2km/h 3.1mph /  5km/h 96% 0in /  0.00mm 11.00 W/m2 unknown
16:19 41 °F /  5.0 °C 39.2 °F /  4.0 °C 30in /  1015.7hPa North 1.9mph /  3km/h 3.7mph /  6km/h 96% 0in /  0.00mm 9.00 W/m2 unknown
16:24 41 °F /  5.0 °C 39.2 °F /  4.0 °C 30in /  1015.8hPa NNE 1.9mph /  3km/h 3.1mph /  5km/h 96% 0in /  0.00mm 7.00 W/m2 unknown
16:29 41 °F /  5.0 °C 39.2 °F /  4.0 °C 30in /  1015.8hPa NNE 2.5mph /  4km/h 3.7mph /  6km/h 96% 0in /  0.00mm 0.00 W/m2 unknown
16:34 41 °F /  5.0 °C 39.2 °F /  4.0 °C 30in /  1015.7hPa North 2.5mph /  4km/h 3.7mph /  6km/h 96% 0in /  0.00mm 0.00 W/m2 unknown
16:39 41 °F /  5.0 °C 39.2 °F /  4.0 °C 30in /  1015.7hPa NNE 1.9mph /  3km/h 3.1mph /  5km/h 96% 0in /  0.00mm 0.00 W/m2 unknown
16:44 41 °F /  5.0 °C 39.2 °F /  4.0 °C 30in /  1015.7hPa NE 1.2mph /  2km/h 3.1mph /  5km/h 96% 0in /  0.00mm 0.00 W/m2 unknown
16:49 41 °F /  5.0 °C 39.2 °F /  4.0 °C 30in /  1015.7hPa NNE 2.5mph /  4km/h 3.7mph /  6km/h 96% 0in /  0.00mm 0.00 W/m2 unknown
16:54 41 °F /  5.0 °C 39.2 °F /  4.0 °C 30in /  1015.7hPa NNE 1.9mph /  3km/h 3.7mph /  6km/h 96% 0in /  0.00mm 0.00 W/m2 unknown
16:59 41 °F /  5.0 °C 39.2 °F /  4.0 °C 30in /  1015.7hPa North 1.9mph /  3km/h 3.7mph /  6km/h 96% 0in /  0.00mm 0.00 W/m2 unknown
17:04 41 °F /  5.0 °C 39.2 °F /  4.0 °C 30in /  1015.7hPa NE 1.2mph /  2km/h 3.1mph /  5km/h 96% 0in /  0.00mm 0.00 W/m2 unknown
17:09 41 °F /  5.0 °C 39.2 °F /  4.0 °C 30in /  1015.7hPa NE 1.2mph /  2km/h 2.5mph /  4km/h 95% 0in /  0.00mm 0.00 W/m2 unknown
17:14 39.2 °F /  4.0 °C 39.2 °F /  4.0 °C 30in /  1015.7hPa NE 0.6mph /  1km/h 1.9mph /  3km/h 96% 0in /  0.00mm 0.00 W/m2 unknown
17:19 39.2 °F /  4.0 °C 39.2 °F /  4.0 °C 30in /  1015.8hPa NE 1.9mph /  3km/h 2.5mph /  4km/h 96% 0in /  0.00mm 0.00 W/m2 unknown
17:24 39.2 °F /  4.0 °C 39.2 °F /  4.0 °C 30in /  1015.7hPa East 1.2mph /  2km/h 2.5mph /  4km/h 96% 0in /  0.00mm 0.00 W/m2 unknown
17:29 39.2 °F /  4.0 °C 39.2 °F /  4.0 °C 30in /  1015.7hPa East 1.2mph /  2km/h 2.5mph /  4km/h 96% 0in /  0.00mm 0.00 W/m2 unknown
17:34 39.2 °F /  4.0 °C 39.2 °F /  4.0 °C 30in /  1015.7hPa ENE 1.2mph /  2km/h 2.5mph /  4km/h 96% 0in /  0.00mm 0.00 W/m2 unknown
17:39 39.2 °F /  4.0 °C 39.2 °F /  4.0 °C 30in /  1015.7hPa ENE 3.1mph /  5km/h 3.7mph /  6km/h 96% 0in /  0.00mm 0.00 W/m2 unknown
17:44 39.2 °F /  4.0 °C 39.2 °F /  4.0 °C 30in /  1015.6hPa NE 3.1mph /  5km/h 3.7mph /  6km/h 96% 0in /  0.00mm 0.00 W/m2 unknown
17:49 39.2 °F /  4.0 °C 39.2 °F /  4.0 °C 30in /  1015.6hPa NNW 2.5mph /  4km/h 3.7mph /  6km/h 96% 0in /  0.00mm 0.00 W/m2 unknown
17:54 39.2 °F /  4.0 °C 39.2 °F /  4.0 °C 30in /  1015.5hPa NE 1.2mph /  2km/h 3.1mph /  5km/h 96% 0in /  0.00mm 0.00 W/m2 unknown
17:59 39.2 °F /  4.0 °C 39.2 °F /  4.0 °C 30in /  1015.6hPa East 2.5mph /  4km/h 3.7mph /  6km/h 96% 0in /  0.00mm 0.00 W/m2 unknown
18:04 39.2 °F /  4.0 °C 39.2 °F /  4.0 °C 30in /  1015.6hPa NNE 3.7mph /  6km/h 3.7mph /  6km/h 96% 0in /  0.00mm 0.00 W/m2 unknown
18:09 39.2 °F /  4.0 °C 39.2 °F /  4.0 °C 30in /  1015.6hPa North 2.5mph /  4km/h 3.7mph /  6km/h 96% 0in /  0.00mm 0.00 W/m2 unknown
18:14 39.2 °F /  4.0 °C 39.2 °F /  4.0 °C 30in /  1015.6hPa NE 2.5mph /  4km/h 3.7mph /  6km/h 96% 0in /  0.00mm 0.00 W/m2 unknown
18:19 39.2 °F /  4.0 °C 39.2 °F /  4.0 °C 30in /  1015.6hPa East 2.5mph /  4km/h 3.7mph /  6km/h 96% 0in /  0.00mm 0.00 W/m2 unknown
18:24 39.2 °F /  4.0 °C 39.2 °F /  4.0 °C 30in /  1015.6hPa NE 2.5mph /  4km/h 3.7mph /  6km/h 96% 0in /  0.00mm 0.00 W/m2 unknown
18:29 39.2 °F /  4.0 °C 39.2 °F /  4.0 °C 30in /  1015.7hPa NE 1.2mph /  2km/h 3.1mph /  5km/h 96% 0in /  0.00mm 0.00 W/m2 unknown
18:34 39.2 °F /  4.0 °C 39.2 °F /  4.0 °C 30in /  1015.7hPa East 1.9mph /  3km/h 3.1mph /  5km/h 96% 0in /  0.00mm 0.00 W/m2 unknown
18:39 39.2 °F /  4.0 °C 39.2 °F /  4.0 °C 30in /  1015.7hPa ESE 2.5mph /  4km/h 3.7mph /  6km/h 96% 0in /  0.00mm 0.00 W/m2 unknown
18:44 39.2 °F /  4.0 °C 39.2 °F /  4.0 °C 30in /  1015.7hPa East 3.1mph /  5km/h 3.7mph /  6km/h 96% 0in /  0.00mm 0.00 W/m2 unknown
18:49 39.2 °F /  4.0 °C 39.2 °F /  4.0 °C 30in /  1015.6hPa East 2.5mph /  4km/h 3.7mph /  6km/h 96% 0in /  0.00mm 0.00 W/m2 unknown
18:54 39.2 °F /  4.0 °C 37.4 °F /  3.0 °C 30in /  1015.7hPa East 1.9mph /  3km/h 3.1mph /  5km/h 96% 0in /  0.00mm 0.00 W/m2 unknown
18:59 39.2 °F /  4.0 °C 37.4 °F /  3.0 °C 30in /  1015.8hPa ENE 3.1mph /  5km/h 3.7mph /  6km/h 96% 0in /  0.00mm 0.00 W/m2 unknown
19:04 39.2 °F /  4.0 °C 37.4 °F /  3.0 °C 30in /  1015.8hPa NE 1.9mph /  3km/h 3.7mph /  6km/h 96% 0in /  0.00mm 0.00 W/m2 unknown
19:09 39.2 °F /  4.0 °C 37.4 °F /  3.0 °C 30in /  1015.8hPa NE 1.2mph /  2km/h 3.1mph /  5km/h 96% 0in /  0.00mm 0.00 W/m2 unknown
19:14 39.2 °F /  4.0 °C 37.4 °F /  3.0 °C 30in /  1015.8hPa NE 2.5mph /  4km/h 3.7mph /  6km/h 96% 0in /  0.00mm 0.00 W/m2 unknown
19:19 39.2 °F /  4.0 °C 37.4 °F /  3.0 °C 30in /  1015.8hPa NE 1.2mph /  2km/h 3.7mph /  6km/h 96% 0in /  0.00mm 0.00 W/m2 unknown
19:24 39.2 °F /  4.0 °C 37.4 °F /  3.0 °C 30in /  1015.9hPa East 1.2mph /  2km/h 2.5mph /  4km/h 96% 0in /  0.00mm 0.00 W/m2 unknown
19:29 39.2 °F /  4.0 °C 37.4 °F /  3.0 °C 30in /  1015.8hPa East 1.2mph /  2km/h 2.5mph /  4km/h 96% 0in /  0.00mm 0.00 W/m2 unknown
19:34 39.2 °F /  4.0 °C 37.4 °F /  3.0 °C 30in /  1015.8hPa East 1.2mph /  2km/h 2.5mph /  4km/h 96% 0in /  0.00mm 0.00 W/m2 unknown
19:39 39.2 °F /  4.0 °C 37.4 °F /  3.0 °C 30in /  1015.9hPa SE 1.2mph /  2km/h 2.5mph /  4km/h 96% 0in /  0.00mm 0.00 W/m2 unknown
19:44 39.2 °F /  4.0 °C 37.4 °F /  3.0 °C 30in /  1015.9hPa SSE 1.9mph /  3km/h 2.5mph /  4km/h 96% 0in /  0.00mm 0.00 W/m2 unknown
19:49 39.2 °F /  4.0 °C 37.4 °F /  3.0 °C 30in /  1015.9hPa SE 2.5mph /  4km/h 3.7mph /  6km/h 96% 0in /  0.00mm 0.00 W/m2 unknown
19:54 39.2 °F /  4.0 °C 37.4 °F /  3.0 °C 30in /  1015.9hPa SE 1.2mph /  2km/h 3.1mph /  5km/h 96% 0in /  0.00mm 0.00 W/m2 unknown
19:59 39.2 °F /  4.0 °C 37.4 °F /  3.0 °C 30in /  1015.9hPa Calm   1.9mph /  3km/h 96% 0in /  0.00mm 0.00 W/m2 unknown
20:04 39.2 °F /  4.0 °C 37.4 °F /  3.0 °C 30in /  1015.8hPa Calm   1.2mph /  2km/h 96% 0in /  0.00mm 0.00 W/m2 unknown
20:09 39.2 °F /  4.0 °C 37.4 °F /  3.0 °C 30in /  1015.8hPa SE 1.2mph /  2km/h 1.2mph /  2km/h 96% 0in /  0.00mm 0.00 W/m2 unknown
20:14 39.2 °F /  4.0 °C 37.4 °F /  3.0 °C 30in /  1015.8hPa South 1.9mph /  3km/h 3.1mph /  5km/h 96% 0in /  0.00mm 0.00 W/m2 unknown
20:19 39.2 °F /  4.0 °C 37.4 °F /  3.0 °C 30in /  1015.8hPa SW 2.5mph /  4km/h 3.7mph /  6km/h 96% 0in /  0.00mm 0.00 W/m2 unknown
20:24 39.2 °F /  4.0 °C 37.4 °F /  3.0 °C 30in /  1015.8hPa SW 2.5mph /  4km/h 3.7mph /  6km/h 96% 0in /  0.00mm 0.00 W/m2 unknown
20:29 39.2 °F /  4.0 °C 37.4 °F /  3.0 °C 30in /  1015.8hPa SW 1.9mph /  3km/h 3.7mph /  6km/h 96% 0in /  0.00mm 0.00 W/m2 unknown
20:34 39.2 °F /  4.0 °C 37.4 °F /  3.0 °C 30in /  1015.8hPa Calm   3.1mph /  5km/h 96% 0in /  0.00mm 0.00 W/m2 unknown
20:39 39.2 °F /  4.0 °C 37.4 °F /  3.0 °C 30in /  1015.8hPa Calm   1.2mph /  2km/h 96% 0in /  0.00mm 0.00 W/m2 unknown
20:44 39.2 °F /  4.0 °C 37.4 °F /  3.0 °C 30in /  1015.8hPa SW 1.2mph /  2km/h 2.5mph /  4km/h 96% 0in /  0.00mm 0.00 W/m2 unknown
20:49 39.2 °F /  4.0 °C 37.4 °F /  3.0 °C 30in /  1015.8hPa WNW 2.5mph /  4km/h 3.7mph /  6km/h 96% 0in /  0.00mm 0.00 W/m2 unknown
20:54 39.2 °F /  4.0 °C 37.4 °F /  3.0 °C 30in /  1015.8hPa WNW 1.9mph /  3km/h 3.7mph /  6km/h 96% 0in /  0.00mm 0.00 W/m2 unknown
20:59 39.2 °F /  4.0 °C 37.4 °F /  3.0 °C 30in /  1015.7hPa WNW 0.6mph /  1km/h 3.1mph /  5km/h 96% 0in /  0.00mm 0.00 W/m2 unknown
21:04 39.2 °F /  4.0 °C 37.4 °F /  3.0 °C 30in /  1015.7hPa WNW 1.2mph /  2km/h 2.5mph /  4km/h 96% 0in /  0.00mm 0.00 W/m2 unknown
21:09 39.2 °F /  4.0 °C 37.4 °F /  3.0 °C 30in /  1015.7hPa WNW 2.5mph /  4km/h 3.7mph /  6km/h 96% 0in /  0.00mm 0.00 W/m2 unknown
21:14 39.2 °F /  4.0 °C 37.4 °F /  3.0 °C 30in /  1015.6hPa WNW 3.1mph /  5km/h 3.7mph /  6km/h 96% 0in /  0.00mm 0.00 W/m2 unknown
21:19 39.2 °F /  4.0 °C 37.4 °F /  3.0 °C 30in /  1015.7hPa WNW 3.1mph /  5km/h 3.7mph /  6km/h 96% 0in /  0.00mm 0.00 W/m2 unknown
21:24 39.2 °F /  4.0 °C 37.4 °F /  3.0 °C 30in /  1015.7hPa WNW 2.5mph /  4km/h 3.7mph /  6km/h 96% 0in /  0.00mm 0.00 W/m2 unknown
21:29 39.2 °F /  4.0 °C 37.4 °F /  3.0 °C 30in /  1015.6hPa WNW 1.9mph /  3km/h 3.7mph /  6km/h 96% 0in /  0.00mm 0.00 W/m2 unknown
21:34 39.2 °F /  4.0 °C 37.4 °F /  3.0 °C 30in /  1015.7hPa SW 1.9mph /  3km/h 3.7mph /  6km/h 96% 0in /  0.00mm 0.00 W/m2 unknown
21:39 39.2 °F /  4.0 °C 37.4 °F /  3.0 °C 30in /  1015.6hPa West 1.9mph /  3km/h 3.7mph /  6km/h 96% 0in /  0.00mm 0.00 W/m2 unknown
21:44 39.2 °F /  4.0 °C 37.4 °F /  3.0 °C 30in /  1015.5hPa West 1.2mph /  2km/h 3.1mph /  5km/h 96% 0in /  0.00mm 0.00 W/m2 unknown
21:49 39.2 °F /  4.0 °C 37.4 °F /  3.0 °C 30in /  1015.5hPa SW 2.5mph /  4km/h 3.7mph /  6km/h 96% 0in /  0.00mm 0.00 W/m2 unknown
21:54 39.2 °F /  4.0 °C 37.4 °F /  3.0 °C 30in /  1015.5hPa WSW 2.5mph /  4km/h 3.7mph /  6km/h 96% 0in /  0.00mm 0.00 W/m2 unknown
21:59 39.2 °F /  4.0 °C 37.4 °F /  3.0 °C 30in /  1015.5hPa SW 3.1mph /  5km/h 3.7mph /  6km/h 96% 0in /  0.00mm 0.00 W/m2 unknown
22:04 39.2 °F /  4.0 °C 37.4 °F /  3.0 °C 30in /  1015.5hPa WSW 3.1mph /  5km/h 3.7mph /  6km/h 96% 0in /  0.00mm 0.00 W/m2 unknown
22:09 39.2 °F /  4.0 °C 37.4 °F /  3.0 °C 30in /  1015.5hPa SW 2.5mph /  4km/h 3.7mph /  6km/h 96% 0in /  0.00mm 0.00 W/m2 unknown
22:14 39.2 °F /  4.0 °C 37.4 °F /  3.0 °C 30in /  1015.5hPa SSW 3.7mph /  6km/h 5mph /  8km/h 96% 0in /  0.00mm 0.00 W/m2 unknown
22:19 39.2 °F /  4.0 °C 37.4 °F /  3.0 °C 30in /  1015.5hPa SSW 3.1mph /  5km/h 5mph /  8km/h 96% 0in /  0.00mm 0.00 W/m2 unknown
22:24 39.2 °F /  4.0 °C 37.4 °F /  3.0 °C 30in /  1015.4hPa SSW 3.1mph /  5km/h 3.7mph /  6km/h 96% 0in /  0.00mm 0.00 W/m2 unknown
22:29 39.2 °F /  4.0 °C 37.4 °F /  3.0 °C 30in /  1015.4hPa SSW 3.1mph /  5km/h 3.7mph /  6km/h 96% 0in /  0.00mm 0.00 W/m2 unknown
22:34 39.2 °F /  4.0 °C 37.4 °F /  3.0 °C 30in /  1015.5hPa SSW 3.7mph /  6km/h 5mph /  8km/h 96% 0in /  0.00mm 0.00 W/m2 unknown
22:39 39.2 °F /  4.0 °C 37.4 °F /  3.0 °C 30in /  1015.6hPa SSW 3.7mph /  6km/h 5mph /  8km/h 96% 0in /  0.00mm 0.00 W/m2 unknown
22:44 39.2 °F /  4.0 °C 37.4 °F /  3.0 °C 30in /  1015.7hPa SSW 4.3mph /  7km/h 5mph /  8km/h 96% 0in /  0.00mm 0.00 W/m2 unknown
22:49 39.2 °F /  4.0 °C 37.4 °F /  3.0 °C 30in /  1015.7hPa SW 3.7mph /  6km/h 5mph /  8km/h 96% 0in /  0.00mm 0.00 W/m2 unknown
22:54 39.2 °F /  4.0 °C 37.4 °F /  3.0 °C 30in /  1015.6hPa SW 2.5mph /  4km/h 5mph /  8km/h 96% 0in /  0.00mm 0.00 W/m2 unknown
22:59 39.2 °F /  4.0 °C 37.4 °F /  3.0 °C 30in /  1015.5hPa SW 1.9mph /  3km/h 3.7mph /  6km/h 96% 0in /  0.00mm 0.00 W/m2 unknown
23:04 39.2 °F /  4.0 °C 37.4 °F /  3.0 °C 30in /  1015.5hPa SW 1.9mph /  3km/h 3.7mph /  6km/h 96% 0in /  0.00mm 0.00 W/m2 unknown
23:09 39.2 °F /  4.0 °C 37.4 °F /  3.0 °C 30in /  1015.5hPa WSW 1.2mph /  2km/h 3.1mph /  5km/h 96% 0in /  0.00mm 0.00 W/m2 unknown
23:14 39.2 °F /  4.0 °C 37.4 °F /  3.0 °C 30in /  1015.4hPa WNW 1.9mph /  3km/h 3.7mph /  6km/h 96% 0in /  0.00mm 0.00 W/m2 unknown
23:19 39.2 °F /  4.0 °C 37.4 °F /  3.0 °C 30in /  1015.5hPa WNW 2.5mph /  4km/h 3.7mph /  6km/h 96% 0in /  0.00mm 0.00 W/m2 unknown
23:24 39.2 °F /  4.0 °C 37.4 °F /  3.0 °C 30in /  1015.5hPa WNW 3.1mph /  5km/h 3.7mph /  6km/h 96% 0in /  0.00mm 0.00 W/m2 unknown
23:29 39.2 °F /  4.0 °C 37.4 °F /  3.0 °C 30in /  1015.4hPa WNW 3.1mph /  5km/h 3.7mph /  6km/h 96% 0in /  0.00mm 0.00 W/m2 unknown
23:34 39.2 °F /  4.0 °C 37.4 °F /  3.0 °C 30in /  1015.4hPa WNW 1.9mph /  3km/h 3.7mph /  6km/h 96% 0in /  0.00mm 0.00 W/m2 unknown
23:39 39.2 °F /  4.0 °C 37.4 °F /  3.0 °C 30in /  1015.3hPa WNW 3.1mph /  5km/h 3.7mph /  6km/h 96% 0in /  0.00mm 0.00 W/m2 unknown
23:44 39.2 °F /  4.0 °C 37.4 °F /  3.0 °C 30in /  1015.3hPa West 3.1mph /  5km/h 3.7mph /  6km/h 96% 0in /  0.00mm 0.00 W/m2 unknown
23:49 39.2 °F /  4.0 °C 37.4 °F /  3.0 °C 30in /  1015.4hPa WSW 3.7mph /  6km/h 3.7mph /  6km/h 96% 0in /  0.00mm 0.00 W/m2 unknown
23:54 39.2 °F /  4.0 °C 37.4 °F /  3.0 °C 30in /  1015.4hPa WNW 3.1mph /  5km/h 5mph /  8km/h 96% 0in /  0.00mm 0.00 W/m2 unknown
23:59 39.2 °F /  4.0 °C 37.4 °F /  3.0 °C 30in /  1015.4hPa WNW 3.1mph /  5km/h 5mph /  8km/h 96% 0in /  0.00mm 0.00 W/m2 unknown
Stazione Meteorologica MeteoMincio Rivalta s/M (MN)
Con i complimenti di Weather Underground - 4 mb



METEO PILLOLE
Temperatura minima più alta
Khasab (3m) - Oman
Il 27 giugno 2011 il termometro segnò +41.7°c .
Share

Non seguire questo link o sarai bannato dal sito!